Time;durP1;ratioP1;P1;durP2;ratioP2;P2;SDS_P1;SDS_P2;PMS_P1;PMS_P2;Temp;Humidity;BMP_temperature;BMP_pressure;BME280_temperature;BME280_humidity;BME280_pressure;Samples;Min_cycle;Max_cycle;Signal;HPM_P1;HPM_P2
2023/08/12 00:01:38;;;;;;;23.40;12.50;;;;;;;-148.15;100.00;61821.78;4982556;28;20027;-88
2023/08/12 00:04:04;;;;;;;18.92;12.00;;;;;;;-148.15;100.00;61821.78;4975401;28;20069;-88
2023/08/12 00:06:29;;;;;;;19.03;11.90;;;;;;;-148.15;100.00;61821.78;4975100;28;20032;-88
2023/08/12 00:08:55;;;;;;;18.20;13.20;;;;;;;-148.15;100.00;61821.78;4974424;28;20486;-89
2023/08/12 00:11:20;;;;;;;19.10;11.40;;;;;;;-148.15;100.00;61821.78;4974824;28;20297;-88
2023/08/12 00:13:45;;;;;;;18.80;11.90;;;;;;;-148.15;100.00;61821.78;4975286;28;20077;-89
2023/08/12 00:16:11;;;;;;;19.53;11.47;;;;;;;-148.15;100.00;61821.78;4974400;28;20055;-89
2023/08/12 00:18:36;;;;;;;19.77;11.37;;;;;;;-148.15;100.00;61821.78;4974404;28;20031;-88
2023/08/12 00:21:07;;;;;;;17.15;11.10;;;;;;;-148.15;100.00;61821.78;4974153;28;20092;-89
2023/08/12 00:23:33;;;;;;;19.98;12.20;;;;;;;-148.15;100.00;61821.78;4975271;28;20538;-88
2023/08/12 00:25:58;;;;;;;17.33;11.40;;;;;;;-148.15;100.00;61821.78;4985553;28;20057;-88
2023/08/12 00:28:24;;;;;;;16.00;10.93;;;;;;;-148.15;100.00;61821.78;4976765;28;20050;-89
2023/08/12 00:30:49;;;;;;;21.27;11.70;;;;;;;-148.15;100.00;61821.78;4975665;28;20285;-89
2023/08/12 00:33:14;;;;;;;16.93;11.80;;;;;;;-148.15;100.00;61821.78;4974909;28;20023;-87
2023/08/12 00:35:40;;;;;;;18.27;11.07;;;;;;;-148.15;100.00;61821.78;4974365;28;20023;-88
2023/08/12 00:38:05;;;;;;;20.73;10.67;;;;;;;-148.15;100.00;61821.78;4975039;28;20490;-89
2023/08/12 00:40:31;;;;;;;24.13;13.07;;;;;;;-148.15;100.00;61821.78;4974835;28;20054;-89
2023/08/12 00:42:56;;;;;;;21.13;12.20;;;;;;;-148.15;100.00;61821.78;4975002;28;20274;-89
2023/08/12 00:45:22;;;;;;;18.83;12.30;;;;;;;-148.15;100.00;61821.78;4974711;28;20114;-89
2023/08/12 00:47:47;;;;;;;22.13;13.03;;;;;;;-148.15;100.00;61821.78;4955937;28;20037;-89
2023/08/12 00:50:14;;;;;;;20.00;12.47;;;;;;;-148.15;100.00;61821.78;4974164;28;20035;-89
2023/08/12 00:52:40;;;;;;;21.60;12.65;;;;;;;-148.15;100.00;61821.78;4974372;28;20023;-89
2023/08/12 00:55:06;;;;;;;24.80;12.93;;;;;;;-148.15;100.00;61821.78;4974340;28;20118;-89
2023/08/12 00:57:31;;;;;;;21.93;12.23;;;;;;;-148.15;100.00;61821.78;4974232;28;20092;-89
2023/08/12 00:59:57;;;;;;;22.08;12.88;;;;;;;-148.15;100.00;61821.78;4956430;28;20026;-89
2023/08/12 01:02:22;;;;;;;19.93;12.77;;;;;;;-148.15;100.00;61821.78;4973777;28;20398;-89
2023/08/12 01:04:47;;;;;;;20.43;13.60;;;;;;;-148.15;100.00;61821.78;4972589;28;20053;-89
2023/08/12 01:07:13;;;;;;;18.50;13.07;;;;;;;-148.15;100.00;61821.78;4973978;28;20397;-89
2023/08/12 01:09:38;;;;;;;23.00;14.43;;;;;;;-148.15;100.00;61821.78;4974029;28;20981;-89
2023/08/12 01:12:13;;;;;;;20.53;12.70;;;;;;;-148.15;100.00;61821.78;4984621;28;20034;-88
2023/08/12 01:14:47;;;;;;;21.08;15.85;;;;;;;-148.15;100.00;61821.78;4980590;28;20030;-88
2023/08/12 01:17:14;;;;;;;24.45;15.52;;;;;;;-148.15;100.00;61821.78;4972950;28;20046;-88
2023/08/12 01:19:42;;;;;;;32.25;16.55;;;;;;;-148.15;100.00;61821.78;4991069;28;20043;-89
2023/08/12 01:22:12;;;;;;;21.73;15.30;;;;;;;-148.15;100.00;61821.78;4974467;28;20115;-89
2023/08/12 01:24:40;;;;;;;29.63;16.40;;;;;;;-148.15;100.00;61821.78;4974164;28;20284;-89
2023/08/12 01:27:06;;;;;;;25.05;15.60;;;;;;;-148.15;100.00;61821.78;4973805;28;20061;-89
2023/08/12 01:29:41;;;;;;;26.95;14.82;;;;;;;-148.15;100.00;61821.78;4974067;28;20401;-89
2023/08/12 01:32:19;;;;;;;22.10;14.13;;;;;;;-148.15;100.00;61821.78;4954264;28;20046;-89
2023/08/12 01:34:57;;;;;;;20.02;14.40;;;;;;;-148.15;100.00;61821.78;4954912;29;20033;-89
2023/08/12 01:37:28;;;;;;;24.08;14.32;;;;;;;-148.15;100.00;61821.78;4953869;29;20035;-89
2023/08/12 01:39:56;;;;;;;24.00;14.32;;;;;;;-148.15;100.00;61821.78;4954772;29;20070;-89
2023/08/12 01:42:24;;;;;;;21.85;14.52;;;;;;;-148.15;100.00;61821.78;4964074;28;20379;-89
2023/08/12 01:44:49;;;;;;;21.58;14.13;;;;;;;-148.15;100.00;61821.78;4972985;28;20023;-89
2023/08/12 01:47:15;;;;;;;22.07;14.17;;;;;;;-148.15;100.00;61821.78;4972383;28;20034;-89
2023/08/12 01:49:40;;;;;;;23.13;14.47;;;;;;;-148.15;100.00;61821.78;4973390;28;20121;-88
2023/08/12 01:52:05;;;;;;;22.50;13.65;;;;;;;-148.15;100.00;61821.78;4973145;28;20031;-89
2023/08/12 01:54:33;;;;;;;19.73;11.90;;;;;;;-148.15;100.00;61821.78;4973714;28;20027;-89
2023/08/12 01:57:05;;;;;;;20.45;12.38;;;;;;;-148.15;100.00;61821.78;4973234;28;20027;-89
2023/08/12 01:59:31;;;;;;;19.65;12.90;;;;;;;-148.15;100.00;61821.78;4972981;28;20082;-89
2023/08/12 02:01:56;;;;;;;16.37;11.40;;;;;;;-148.15;100.00;61821.78;4955696;28;20035;-89
2023/08/12 02:04:21;;;;;;;20.15;12.15;;;;;;;-148.15;100.00;61821.78;4973286;28;20061;-88
2023/08/12 02:06:47;;;;;;;17.13;11.40;;;;;;;-148.15;100.00;61821.78;4972320;28;20336;-88
2023/08/12 02:09:12;;;;;;;23.30;11.90;;;;;;;-148.15;100.00;61821.78;4974418;28;20403;-88
2023/08/12 02:11:37;;;;;;;16.33;10.83;;;;;;;-148.15;100.00;61821.78;4972879;28;20033;-88
2023/08/12 02:14:03;;;;;;;15.50;10.37;;;;;;;-148.15;100.00;61821.78;4972178;28;20027;-89
2023/08/12 02:16:28;;;;;;;14.43;10.07;;;;;;;-148.15;100.00;61821.78;4973458;28;20318;-89
2023/08/12 02:18:53;;;;;;;17.70;10.67;;;;;;;-148.15;100.00;61821.78;4973968;28;20039;-89
2023/08/12 02:21:19;;;;;;;18.83;10.17;;;;;;;-148.15;100.00;61821.78;4973213;28;20031;-88
2023/08/12 02:23:44;;;;;;;15.60;10.00;;;;;;;-148.15;100.00;61821.78;4973643;28;20023;-89
2023/08/12 02:26:09;;;;;;;14.00;10.00;;;;;;;-148.15;100.00;61821.78;4973239;28;20033;-88
2023/08/12 02:28:35;;;;;;;14.00;9.23;;;;;;;-148.15;100.00;61821.78;4972077;28;20117;-89
2023/08/12 02:31:00;;;;;;;15.23;10.07;;;;;;;-148.15;100.00;61821.78;4977257;28;20027;-87
2023/08/12 02:33:25;;;;;;;16.37;9.17;;;;;;;-148.15;100.00;61821.78;4985277;28;20383;-89
2023/08/12 02:35:54;;;;;;;16.00;8.70;;;;;;;-148.15;100.00;61821.78;4975404;28;20162;-87
2023/08/12 02:38:20;;;;;;;15.43;9.25;;;;;;;-148.15;100.00;61821.78;4990044;28;20026;-89
2023/08/12 02:40:48;;;;;;;15.30;8.65;;;;;;;-148.15;100.00;61821.78;4972936;28;20512;-89
2023/08/12 02:43:14;;;;;;;15.48;8.63;;;;;;;-148.15;100.00;61821.78;4972431;28;20097;-88
2023/08/12 02:45:39;;;;;;;14.83;8.83;;;;;;;-148.15;100.00;61821.78;4971168;28;20027;-88
2023/08/12 02:48:05;;;;;;;17.37;9.03;;;;;;;-148.15;100.00;61821.78;4972864;28;20086;-88
2023/08/12 02:50:30;;;;;;;13.63;8.77;;;;;;;-148.15;100.00;61821.78;4972624;28;20390;-89
2023/08/12 02:52:55;;;;;;;17.37;9.30;;;;;;;-148.15;100.00;61821.78;4972461;28;20035;-88
2023/08/12 02:55:21;;;;;;;14.90;8.37;;;;;;;-148.15;100.00;61821.78;4972292;28;20034;-89
2023/08/12 02:57:46;;;;;;;14.00;9.00;;;;;;;-148.15;100.00;61821.78;4972152;28;20019;-88
2023/08/12 03:00:12;;;;;;;14.77;8.87;;;;;;;-148.15;100.00;61821.78;4971390;28;20026;-88
2023/08/12 03:02:37;;;;;;;20.48;9.93;;;;;;;-148.15;100.00;61821.78;4970346;28;20031;-88
2023/08/12 03:05:03;;;;;;;14.57;9.03;;;;;;;-148.15;100.00;61821.78;4972211;28;20077;-89
2023/08/12 03:07:28;;;;;;;17.23;8.27;;;;;;;-148.15;100.00;61821.78;4972637;28;20023;-89
2023/08/12 03:09:53;;;;;;;13.80;8.70;;;;;;;-148.15;100.00;61821.78;4972296;28;20035;-89
2023/08/12 03:12:19;;;;;;;14.43;8.03;;;;;;;-148.15;100.00;61821.78;4971877;28;20407;-89
2023/08/12 03:14:44;;;;;;;14.13;8.20;;;;;;;-148.15;100.00;61821.78;4972270;28;20038;-89
2023/08/12 03:17:10;;;;;;;12.70;8.80;;;;;;;-148.15;100.00;61821.78;4971016;28;20451;-88
2023/08/12 03:19:35;;;;;;;14.65;8.82;;;;;;;-148.15;100.00;61821.78;4972249;28;20113;-89
2023/08/12 03:22:01;;;;;;;15.00;8.00;;;;;;;-148.15;100.00;61821.78;4972826;28;20026;-89
2023/08/12 03:24:26;;;;;;;13.80;8.30;;;;;;;-148.15;100.00;61821.78;4975431;28;20031;-89
2023/08/12 03:26:51;;;;;;;12.35;7.68;;;;;;;-148.15;100.00;61821.78;4977490;28;20064;-88
2023/08/12 03:29:17;;;;;;;14.53;8.00;;;;;;;-148.15;100.00;61821.78;4976899;28;20027;-91
2023/08/12 03:31:42;;;;;;;11.37;7.23;;;;;;;-148.15;100.00;61821.78;4983322;28;20035;-92
2023/08/12 03:34:07;;;;;;;12.70;7.53;;;;;;;-148.15;100.00;61821.78;4983951;28;20031;-93
2023/08/12 03:36:33;;;;;;;10.77;7.50;;;;;;;-148.15;100.00;61821.78;4985189;28;20054;-93
2023/08/12 03:38:58;;;;;;;11.10;7.57;;;;;;;-148.15;100.00;61821.78;4978319;28;20046;-93
2023/08/12 03:41:23;;;;;;;10.40;7.10;;;;;;;-148.15;100.00;61821.78;4973266;28;20113;-93
2023/08/12 03:43:49;;;;;;;12.57;6.80;;;;;;;-148.15;100.00;61821.78;4971784;28;20500;-93
2023/08/12 03:46:16;;;;;;;13.23;6.37;;;;;;;-148.15;100.00;61821.78;4972585;28;20486;-93
2023/08/12 03:48:41;;;;;;;11.48;5.40;;;;;;;-148.15;100.00;61821.78;4976180;28;20074;-92
2023/08/12 03:51:06;;;;;;;12.73;5.87;;;;;;;-148.15;100.00;61821.78;4991068;28;20031;-93
2023/08/12 03:53:32;;;;;;;9.23;5.57;;;;;;;-148.15;100.00;61821.78;4973291;28;20027;-93
2023/08/12 03:55:57;;;;;;;10.70;5.32;;;;;;;-148.15;100.00;61821.78;4984173;28;20039;-93
2023/08/12 03:58:22;;;;;;;9.53;5.20;;;;;;;-148.15;100.00;61821.78;4983502;28;20114;-94
2023/08/12 04:00:48;;;;;;;13.47;5.50;;;;;;;-148.15;100.00;61821.78;4973693;28;20113;-94
2023/08/12 04:03:13;;;;;;;8.77;5.00;;;;;;;-148.15;100.00;61821.78;4972492;28;20039;-94
2023/08/12 04:05:47;;;;;;;10.20;5.03;;;;;;;-148.15;100.00;61821.78;4972546;28;20602;-93
2023/08/12 04:08:13;;;;;;;9.60;4.97;;;;;;;-148.15;100.00;61821.78;4971944;28;20026;-93
2023/08/12 04:10:46;;;;;;;7.87;4.50;;;;;;;-148.15;100.00;61821.78;4981599;23;20057;-93
2023/08/12 04:13:37;;;;;;;9.07;5.22;;;;;;;-148.15;100.00;61821.78;4993102;28;20042;-93
2023/08/12 04:16:02;;;;;;;8.57;5.10;;;;;;;-148.15;100.00;61821.78;4969364;28;20125;-93
2023/08/12 04:18:27;;;;;;;10.57;5.70;;;;;;;-148.15;100.00;61821.78;5008871;28;20053;-93
2023/08/12 04:20:53;;;;;;;13.40;5.93;;;;;;;-148.15;100.00;61821.78;5006483;28;20112;-94
2023/08/12 04:23:19;;;;;;;12.03;5.60;;;;;;;-148.15;100.00;61821.78;4995034;28;20029;-93
2023/08/12 04:25:46;;;;;;;9.93;5.90;;;;;;;-148.15;100.00;61821.78;4995616;28;20026;-94
2023/08/12 04:28:12;;;;;;;11.50;6.20;;;;;;;-148.15;100.00;61821.78;4995666;28;20367;-93
2023/08/12 04:30:45;;;;;;;9.55;5.60;;;;;;;-148.15;100.00;61821.78;4995621;28;20105;-93
2023/08/12 04:33:11;;;;;;;9.63;6.32;;;;;;;-148.15;100.00;61821.78;4995354;28;20061;-95
2023/08/12 04:35:37;;;;;;;9.43;5.67;;;;;;;-148.15;100.00;61821.78;4995179;28;20022;-93
2023/08/12 04:38:02;;;;;;;13.87;6.87;;;;;;;-148.15;100.00;61821.78;4995127;28;20276;-94
2023/08/12 04:40:27;;;;;;;11.20;6.57;;;;;;;-148.15;100.00;61821.78;4983127;28;20050;-93
2023/08/12 04:42:53;;;;;;;12.63;6.83;;;;;;;-148.15;100.00;61821.78;4975933;28;20398;-93
2023/08/12 04:45:18;;;;;;;13.53;7.07;;;;;;;-148.15;100.00;61821.78;4975567;28;20041;-94
2023/08/12 04:47:43;;;;;;;11.60;7.35;;;;;;;-148.15;100.00;61821.78;4975047;28;20034;-94
2023/08/12 04:50:09;;;;;;;13.67;7.90;;;;;;;-148.15;100.00;61821.78;4975267;28;20033;-93
2023/08/12 04:52:34;;;;;;;14.23;7.90;;;;;;;-148.15;100.00;61821.78;4982796;28;20049;-93
2023/08/12 04:54:59;;;;;;;14.60;7.63;;;;;;;-148.15;100.00;61821.78;4995444;28;20081;-93
2023/08/12 04:57:25;;;;;;;14.47;7.23;;;;;;;-148.15;100.00;61821.78;4992463;28;20025;-93
2023/08/12 04:59:51;;;;;;;14.63;7.93;;;;;;;-148.15;100.00;61821.78;4994805;28;20277;-93
2023/08/12 05:02:18;;;;;;;17.97;8.07;;;;;;;-148.15;100.00;61821.78;4993529;28;20034;-96
2023/08/12 05:04:47;;;;;;;17.90;8.85;;;;;;;-148.15;100.00;61821.78;4994857;28;20034;-94
2023/08/12 05:07:13;;;;;;;16.75;9.70;;;;;;;-148.15;100.00;61821.78;4994706;28;20022;-93
2023/08/12 05:09:38;;;;;;;16.73;9.20;;;;;;;-148.15;100.00;61821.78;5002235;28;20030;-93
2023/08/12 05:12:04;;;;;;;15.53;9.07;;;;;;;-148.15;100.00;61821.78;4975759;28;20031;-92
2023/08/12 05:14:29;;;;;;;17.00;8.98;;;;;;;-148.15;100.00;61821.78;4995583;28;20034;-94
2023/08/12 05:16:54;;;;;;;16.33;9.47;;;;;;;-148.15;100.00;61821.78;5008958;28;20038;-93
2023/08/12 05:19:20;;;;;;;13.73;9.10;;;;;;;-148.15;100.00;61821.78;4995618;28;20034;-92
2023/08/12 05:21:45;;;;;;;14.07;8.70;;;;;;;-148.15;100.00;61821.78;4998795;28;20498;-93
2023/08/12 05:24:11;;;;;;;13.00;8.80;;;;;;;-148.15;100.00;61821.78;4994858;28;20277;-94
2023/08/12 05:26:36;;;;;;;14.27;8.47;;;;;;;-148.15;100.00;61821.78;4993479;28;20030;-93
2023/08/12 05:29:02;;;;;;;13.25;8.88;;;;;;;-148.15;100.00;61821.78;4993794;28;20423;-94
2023/08/12 05:31:27;;;;;;;13.53;8.67;;;;;;;-148.15;100.00;61821.78;4993074;28;20091;-93
2023/08/12 05:33:52;;;;;;;15.97;7.83;;;;;;;-148.15;100.00;61821.78;4995805;28;20286;-94
2023/08/12 05:36:17;;;;;;;17.57;7.60;;;;;;;-148.15;100.00;61821.78;4994674;28;20093;-94
2023/08/12 05:38:43;;;;;;;14.13;7.63;;;;;;;-148.15;100.00;61821.78;4994672;28;20046;-93
2023/08/12 05:41:08;;;;;;;16.30;7.00;;;;;;;-148.15;100.00;61821.78;4995240;28;20033;-93
2023/08/12 05:43:33;;;;;;;12.13;7.37;;;;;;;-148.15;100.00;61821.78;4994510;28;20030;-92
2023/08/12 05:45:59;;;;;;;12.20;7.35;;;;;;;-148.15;100.00;61821.78;4992037;28;20105;-94
2023/08/12 05:48:24;;;;;;;10.47;7.10;;;;;;;-148.15;100.00;61821.78;4993219;28;20375;-93
2023/08/12 05:50:49;;;;;;;10.17;6.90;;;;;;;-148.15;100.00;61821.78;4994117;28;20093;-95
2023/08/12 05:53:15;;;;;;;13.37;6.50;;;;;;;-148.15;100.00;61821.78;4987347;28;20023;-93
2023/08/12 05:55:40;;;;;;;10.63;6.43;;;;;;;-148.15;100.00;61821.78;4990083;28;20034;-91
2023/08/12 05:58:05;;;;;;;7.67;6.23;;;;;;;-148.15;100.00;61821.78;4993521;28;20362;-90
2023/08/12 06:00:31;;;;;;;12.07;6.75;;;;;;;-148.15;100.00;61821.78;4992743;28;20406;-91
2023/08/12 06:02:56;;;;;;;8.93;6.23;;;;;;;-148.15;100.00;61821.78;4990646;28;20069;-91
2023/08/12 06:05:21;;;;;;;13.50;6.70;;;;;;;-148.15;100.00;61821.78;4992206;28;20118;-90
2023/08/12 06:07:47;;;;;;;9.63;6.67;;;;;;;-148.15;100.00;61821.78;4993501;28;20034;-91
2023/08/12 06:10:12;;;;;;;11.43;6.57;;;;;;;-148.15;100.00;61821.78;4980145;28;20058;-91
2023/08/12 06:12:38;;;;;;;9.10;6.30;;;;;;;-148.15;100.00;61821.78;4997009;28;20293;-91
2023/08/12 06:15:04;;;;;;;10.07;6.90;;;;;;;-148.15;100.00;61821.78;5003505;28;20538;-91
2023/08/12 06:17:29;;;;;;;9.27;6.50;;;;;;;-148.15;100.00;61821.78;4974960;28;20015;-90
2023/08/12 06:19:55;;;;;;;8.70;6.10;;;;;;;-148.15;100.00;61821.78;4980066;28;20052;-91
2023/08/12 06:22:20;;;;;;;9.57;6.33;;;;;;;-148.15;100.00;61821.78;5119127;23;20301;-90
2023/08/12 06:24:46;;;;;;;7.80;6.00;;;;;;;-148.15;100.00;61821.78;5004858;28;20046;-90
2023/08/12 06:27:11;;;;;;;10.10;6.40;;;;;;;-148.15;100.00;61821.78;5000105;28;20022;-91
2023/08/12 06:29:36;;;;;;;8.23;6.50;;;;;;;-148.15;100.00;61821.78;5008453;28;20033;-90
2023/08/12 06:32:02;;;;;;;7.20;5.70;;;;;;;-148.15;100.00;61821.78;5003349;28;20061;-90
2023/08/12 06:34:27;;;;;;;9.47;6.80;;;;;;;-148.15;100.00;61821.78;5007636;28;20037;-90
2023/08/12 06:36:52;;;;;;;9.10;6.20;;;;;;;-148.15;100.00;61821.78;5008300;28;20038;-91
2023/08/12 06:39:18;;;;;;;8.10;6.53;;;;;;;-148.15;100.00;61821.78;4997613;28;20031;-89
2023/08/12 06:41:43;;;;;;;7.27;6.57;;;;;;;-148.15;100.00;61821.78;5007456;28;20033;-90
2023/08/12 06:44:08;;;;;;;8.23;5.88;;;;;;;-148.15;100.00;61821.78;4993290;28;20561;-90
2023/08/12 06:46:34;;;;;;;6.17;5.57;;;;;;;-148.15;100.00;61821.78;4994919;28;20030;-90
2023/08/12 06:48:59;;;;;;;6.20;5.60;;;;;;;-148.15;100.00;61821.78;5000102;28;20034;-91
2023/08/12 06:51:24;;;;;;;6.23;5.20;;;;;;;-148.15;100.00;61821.78;5002048;28;20018;-90
2023/08/12 06:53:50;;;;;;;6.27;5.67;;;;;;;-148.15;100.00;61821.78;4996720;28;20031;-91
2023/08/12 06:56:15;;;;;;;7.03;5.83;;;;;;;-148.15;100.00;61821.78;4998050;28;20286;-90
2023/08/12 06:58:41;;;;;;;7.70;5.10;;;;;;;-148.15;100.00;61821.78;5005001;28;20003;-89
2023/08/12 07:01:10;;;;;;;5.40;4.60;;;;;;;-148.15;100.00;61821.78;5007175;28;20078;-90
2023/08/12 07:03:35;;;;;;;5.65;5.05;;;;;;;-148.15;100.00;61821.78;5009086;28;20021;-90
2023/08/12 07:06:01;;;;;;;4.60;4.20;;;;;;;-148.15;100.00;61821.78;4996923;28;20014;-90
2023/08/12 07:08:27;;;;;;;5.20;4.70;;;;;;;-148.15;100.00;61821.78;5007629;28;20034;-90
2023/08/12 07:10:52;;;;;;;4.80;4.50;;;;;;;-148.15;100.00;61821.78;5013905;28;20037;-91
2023/08/12 07:13:18;;;;;;;8.73;4.63;;;;;;;-148.15;100.00;61821.78;5014129;28;20002;-91
2023/08/12 07:15:45;;;;;;;4.43;4.03;;;;;;;-148.15;100.00;61821.78;5015166;28;20050;-90
2023/08/12 07:18:11;;;;;;;5.68;4.40;;;;;;;-148.15;100.00;61821.78;5015005;28;20022;-91
2023/08/12 07:20:36;;;;;;;4.70;4.30;;;;;;;-148.15;100.00;61821.78;5013749;28;20110;-90
2023/08/12 07:23:02;;;;;;;5.73;4.60;;;;;;;-148.15;100.00;61821.78;5012785;28;20307;-90
2023/08/12 07:25:27;;;;;;;5.67;4.53;;;;;;;-148.15;100.00;61821.78;5014145;28;20110;-90
2023/08/12 07:27:52;;;;;;;5.70;5.10;;;;;;;-148.15;100.00;61821.78;5016036;28;20282;-90
2023/08/12 07:30:17;;;;;;;5.67;5.07;;;;;;;-148.15;100.00;61821.78;5008054;28;20029;-89
2023/08/12 07:32:43;;;;;;;5.90;5.40;;;;;;;-148.15;100.00;61821.78;5002717;28;20054;-90
2023/08/12 07:35:08;;;;;;;6.83;5.67;;;;;;;-148.15;100.00;61821.78;4989409;28;20046;-89
2023/08/12 07:37:34;;;;;;;6.80;6.20;;;;;;;-148.15;100.00;61821.78;4994699;28;20050;-89
2023/08/12 07:40:01;;;;;;;7.60;6.40;;;;;;;-148.15;100.00;61821.78;5005381;28;20027;-89
2023/08/12 07:42:26;;;;;;;6.68;5.88;;;;;;;-148.15;100.00;61821.78;5010478;28;20029;-90
2023/08/12 07:44:52;;;;;;;6.37;5.77;;;;;;;-148.15;100.00;61821.78;5011514;28;20035;-89
2023/08/12 07:47:17;;;;;;;6.93;5.97;;;;;;;-148.15;100.00;61821.78;5015405;28;20022;-89
2023/08/12 07:49:43;;;;;;;6.47;5.97;;;;;;;-148.15;100.00;61821.78;5018330;28;20085;-88
2023/08/12 07:52:08;;;;;;;6.05;5.53;;;;;;;-148.15;100.00;61821.78;5008379;28;20021;-89
2023/08/12 07:54:33;;;;;;;6.23;5.63;;;;;;;-148.15;100.00;61821.78;5000882;28;20019;-89
2023/08/12 07:56:59;;;;;;;6.37;5.50;;;;;;;-148.15;100.00;61821.78;5000054;28;20032;-87
2023/08/12 07:59:25;;;;;;;5.30;4.90;;;;;;;-148.15;100.00;61821.78;4980141;28;20096;-89
2023/08/12 08:01:51;;;;;;;5.28;4.78;;;;;;;-148.15;100.00;61821.78;4984110;28;20037;-89
2023/08/12 08:04:16;;;;;;;4.47;4.17;;;;;;;-148.15;100.00;61821.78;5000730;28;20030;-89
2023/08/12 08:06:41;;;;;;;4.80;4.40;;;;;;;-148.15;100.00;61821.78;4999469;28;20356;-90
2023/08/12 08:09:07;;;;;;;4.30;3.90;;;;;;;-148.15;100.00;61821.78;5001762;28;20033;-89
2023/08/12 08:11:34;;;;;;;4.47;4.07;;;;;;;-148.15;100.00;61821.78;4981978;28;20084;-90
2023/08/12 08:13:59;;;;;;;6.25;5.00;;;;;;;-148.15;100.00;61821.78;5000744;28;20058;-90
2023/08/12 08:16:25;;;;;;;5.07;4.60;;;;;;;-148.15;100.00;61821.78;4979802;28;20069;-89
2023/08/12 08:18:50;;;;;;;4.30;3.90;;;;;;;-148.15;100.00;61821.78;4987351;28;20097;-90
2023/08/12 08:21:15;;;;;;;3.53;3.27;;;;;;;-148.15;100.00;61821.78;4998331;28;20085;-89
2023/08/12 08:23:42;;;;;;;3.70;3.40;;;;;;;-148.15;100.00;61821.78;4994410;28;20034;-89
2023/08/12 08:26:08;;;;;;;3.05;2.85;;;;;;;-148.15;100.00;61821.78;4995276;28;20076;-89
2023/08/12 08:28:34;;;;;;;3.75;3.10;;;;;;;-148.15;100.00;61821.78;4994756;28;20058;-88
2023/08/12 08:30:59;;;;;;;2.95;2.75;;;;;;;-148.15;100.00;61821.78;4977169;28;20061;-89
2023/08/12 08:33:26;;;;;;;3.30;3.07;;;;;;;-148.15;100.00;61821.78;4996081;28;20089;-89
2023/08/12 08:35:51;;;;;;;3.40;3.20;;;;;;;-148.15;100.00;61821.78;4996103;28;20117;-89
2023/08/12 08:38:16;;;;;;;4.17;3.80;;;;;;;-148.15;100.00;61821.78;4994710;28;20100;-89
2023/08/12 08:40:42;;;;;;;4.50;4.20;;;;;;;-148.15;100.00;61821.78;4996141;28;20716;-89
2023/08/12 08:43:08;;;;;;;5.70;5.20;;;;;;;-148.15;100.00;61821.78;4995006;28;20034;-90
2023/08/12 08:45:34;;;;;;;5.93;5.50;;;;;;;-148.15;100.00;61821.78;4996780;28;20059;-88
2023/08/12 08:48:01;;;;;;;5.60;5.20;;;;;;;-148.15;100.00;61821.78;4995952;28;20038;-88
2023/08/12 08:50:29;;;;;;;5.43;5.05;;;;;;;-148.15;100.00;61821.78;5003323;28;20049;-87
2023/08/12 08:52:56;;;;;;;5.70;5.30;;;;;;;-148.15;100.00;61821.78;5011172;28;20014;-87
2023/08/12 08:55:22;;;;;;;5.57;5.18;;;;;;;-148.15;100.00;61821.78;4994407;28;20037;-88
2023/08/12 08:57:48;;;;;;;6.40;5.80;;;;;;;-148.15;100.00;61821.78;4993030;28;20034;-88
2023/08/12 09:00:16;;;;;;;7.18;6.68;;;;;;;-148.15;100.00;61821.78;4992656;28;20381;-87
2023/08/12 09:02:43;;;;;;;7.07;6.57;;;;;;;-148.15;100.00;61821.78;4985326;28;20057;-88
2023/08/12 09:05:10;;;;;;;7.20;6.63;;;;;;;-148.15;100.00;61821.78;5004218;28;20292;-88
2023/08/12 09:07:35;;;;;;;7.78;7.18;;;;;;;-148.15;100.00;61821.78;4995695;28;20022;-89
2023/08/12 09:10:03;;;;;;;7.30;6.80;;;;;;;-148.15;100.00;61821.78;4994473;28;20025;-88
2023/08/12 09:12:31;;;;;;;8.10;7.50;;;;;;;-148.15;100.00;61821.78;4996758;28;20027;-87
2023/08/12 09:14:56;;;;;;;7.13;6.63;;;;;;;-148.15;100.00;61821.78;4993729;28;20077;-88
2023/08/12 09:17:22;;;;;;;6.97;6.33;;;;;;;-148.15;100.00;61821.78;4992711;28;20030;-89
2023/08/12 09:19:47;;;;;;;6.82;6.28;;;;;;;-148.15;100.00;61821.78;4992172;28;20038;-88
2023/08/12 09:22:12;;;;;;;6.60;6.10;;;;;;;-148.15;100.00;61821.78;4994862;28;20030;-88
2023/08/12 09:24:38;;;;;;;7.10;6.47;;;;;;;-148.15;100.00;61821.78;4976155;28;20034;-88
2023/08/12 09:27:04;;;;;;;6.87;5.80;;;;;;;-148.15;100.00;61821.78;4991649;28;20061;-88
2023/08/12 09:29:35;;;;;;;5.70;5.40;;;;;;;-148.15;100.00;61821.78;4992733;28;20122;-88
2023/08/12 09:32:17;;;;;;;6.05;5.55;;;;;;;-148.15;100.00;61821.78;4991749;28;20041;-89
2023/08/12 09:34:55;;;;;;;4.97;4.68;;;;;;;-148.15;100.00;61821.78;4991312;28;20663;-89
2023/08/12 09:37:23;;;;;;;5.07;4.68;;;;;;;-148.15;100.00;61821.78;4992901;28;20481;-88
2023/08/12 09:39:50;;;;;;;4.00;3.80;;;;;;;-148.15;100.00;61821.78;4989588;28;20037;-88
2023/08/12 09:42:16;;;;;;;4.22;3.40;;;;;;;-148.15;100.00;61821.78;4993459;28;20040;-89
2023/08/12 09:44:41;;;;;;;3.88;3.58;;;;;;;-148.15;100.00;61821.78;4992043;28;20109;-88
2023/08/12 09:47:10;;;;;;;3.37;3.00;;;;;;;-148.15;100.00;61821.78;4993303;28;20425;-88
2023/08/12 09:49:36;;;;;;;3.22;3.03;;;;;;;-148.15;100.00;61821.78;4991947;28;20027;-89
2023/08/12 09:52:03;;;;;;;3.60;3.30;;;;;;;-148.15;100.00;61821.78;4992059;28;20053;-88
2023/08/12 09:54:31;;;;;;;3.38;3.08;;;;;;;-148.15;100.00;61821.78;4955770;28;20057;-88
2023/08/12 09:56:59;;;;;;;3.28;2.95;;;;;;;-148.15;100.00;61821.78;4982054;28;20502;-88
2023/08/12 09:59:30;;;;;;;2.85;2.65;;;;;;;-148.15;100.00;61821.78;4991784;28;22332;-88
2023/08/12 10:01:57;;;;;;;5.57;3.00;;;;;;;-148.15;100.00;61821.78;4973269;28;20113;-88
2023/08/12 10:04:26;;;;;;;3.33;2.78;;;;;;;-148.15;100.00;61821.78;4991829;28;20030;-88
2023/08/12 10:06:52;;;;;;;1.80;1.70;;;;;;;-148.15;100.00;61821.78;4992606;28;20033;-88
2023/08/12 10:09:18;;;;;;;2.20;2.00;;;;;;;-148.15;100.00;61821.78;4991786;28;20305;-88
2023/08/12 10:11:45;;;;;;;2.13;2.03;;;;;;;-148.15;100.00;61821.78;4990440;28;20113;-88
2023/08/12 10:14:12;;;;;;;1.85;1.50;;;;;;;-148.15;100.00;61821.78;4992786;28;20031;-87
2023/08/12 10:16:37;;;;;;;4.97;1.75;;;;;;;-148.15;100.00;61821.78;4993380;28;20519;-88
2023/08/12 10:19:05;;;;;;;1.57;1.37;;;;;;;-148.15;100.00;61821.78;4992351;28;20104;-88
2023/08/12 10:21:30;;;;;;;5.95;1.70;;;;;;;-148.15;100.00;61821.78;4992014;28;20042;-88
2023/08/12 10:23:58;;;;;;;1.90;1.40;;;;;;;-148.15;100.00;61821.78;4987739;28;20031;-88
2023/08/12 10:26:24;;;;;;;2.33;1.20;;;;;;;-148.15;100.00;61821.78;4981867;28;20822;-88
2023/08/12 10:28:50;;;;;;;1.98;1.48;;;;;;;-148.15;100.00;61821.78;4992049;28;20034;-88
2023/08/12 10:33:51;;;;;;;2.38;1.67;;;;;;;-148.15;100.00;61821.78;5051224;23;20049;-86
2023/08/12 10:36:19;;;;;;;3.50;1.60;;;;;;;-148.15;100.00;61821.78;4991768;28;20034;-86
2023/08/12 10:38:44;;;;;;;4.15;1.70;;;;;;;-148.15;100.00;61821.78;4990888;28;20038;-86
2023/08/12 10:41:25;;;;;;;3.67;1.90;;;;;;;-148.15;100.00;61821.78;4989774;28;20046;-86
2023/08/12 10:43:55;;;;;;;4.57;2.00;;;;;;;-148.15;100.00;61821.78;4991111;28;20034;-85
2023/08/12 10:46:29;;;;;;;4.13;1.60;;;;;;;-148.15;100.00;61821.78;4991455;28;20038;-88
2023/08/12 10:49:09;;;;;;;4.47;2.10;;;;;;;-148.15;100.00;61821.78;4973702;28;20057;-88
2023/08/12 10:51:47;;;;;;;4.53;1.60;;;;;;;-148.15;100.00;61821.78;4992218;28;20026;-88
2023/08/12 10:54:26;;;;;;;5.20;1.45;;;;;;;-148.15;100.00;61821.78;4992483;28;20023;-88
2023/08/12 10:57:13;;;;;;;2.15;1.40;;;;;;;-148.15;100.00;61821.78;4991261;28;20030;-88
2023/08/12 10:59:44;;;;;;;2.67;1.60;;;;;;;-148.15;100.00;61821.78;4992090;28;20030;-88
2023/08/12 11:02:30;;;;;;;3.77;1.67;;;;;;;-148.15;100.00;61821.78;4992519;28;20125;-88
2023/08/12 11:04:57;;;;;;;2.23;1.47;;;;;;;-148.15;100.00;61821.78;4992227;28;20725;-88